sensor_id;sensor_type;location;lat;lon;timestamp;P1;durP1;ratioP1;P2;durP2;ratioP2
17449;SDS011;8842;51.244;7.102;2023-11-19T00:00:45;13.60;;;12.90;;
17449;SDS011;8842;51.244;7.102;2023-11-19T00:05:49;13.10;;;12.40;;
17449;SDS011;8842;51.244;7.102;2023-11-19T00:16:05;13.33;;;12.63;;
17449;SDS011;8842;51.244;7.102;2023-11-19T00:21:12;13.50;;;12.80;;
17449;SDS011;8842;51.244;7.102;2023-11-19T00:26:16;13.67;;;12.97;;
17449;SDS011;8842;51.244;7.102;2023-11-19T00:31:31;13.57;;;12.87;;
17449;SDS011;8842;51.244;7.102;2023-11-19T00:36:35;13.73;;;13.03;;
17449;SDS011;8842;51.244;7.102;2023-11-19T00:41:46;14.00;;;13.30;;
17449;SDS011;8842;51.244;7.102;2023-11-19T00:46:51;14.40;;;13.60;;
17449;SDS011;8842;51.244;7.102;2023-11-19T00:51:55;13.90;;;13.20;;
17449;SDS011;8842;51.244;7.102;2023-11-19T00:56:59;13.57;;;12.87;;
17449;SDS011;8842;51.244;7.102;2023-11-19T01:02:04;13.97;;;13.27;;
17449;SDS011;8842;51.244;7.102;2023-11-19T01:07:09;13.77;;;13.07;;
17449;SDS011;8842;51.244;7.102;2023-11-19T01:12:23;13.90;;;13.20;;
17449;SDS011;8842;51.244;7.102;2023-11-19T01:17:27;13.53;;;12.83;;
17449;SDS011;8842;51.244;7.102;2023-11-19T01:27:47;14.20;;;13.43;;
17449;SDS011;8842;51.244;7.102;2023-11-19T01:32:52;13.87;;;13.17;;
17449;SDS011;8842;51.244;7.102;2023-11-19T01:37:56;13.73;;;13.03;;
17449;SDS011;8842;51.244;7.102;2023-11-19T01:43:00;13.60;;;12.90;;
17449;SDS011;8842;51.244;7.102;2023-11-19T01:48:05;13.90;;;13.20;;
17449;SDS011;8842;51.244;7.102;2023-11-19T01:53:17;14.00;;;13.30;;
17449;SDS011;8842;51.244;7.102;2023-11-19T02:03:33;14.00;;;13.30;;
17449;SDS011;8842;51.244;7.102;2023-11-19T02:08:38;14.00;;;13.30;;
17449;SDS011;8842;51.244;7.102;2023-11-19T02:13:42;13.80;;;13.10;;
17449;SDS011;8842;51.244;7.102;2023-11-19T02:18:54;14.40;;;13.60;;
17449;SDS011;8842;51.244;7.102;2023-11-19T02:23:58;13.90;;;13.20;;
17449;SDS011;8842;51.244;7.102;2023-11-19T02:29:02;14.10;;;13.40;;
17449;SDS011;8842;51.244;7.102;2023-11-19T02:34:14;15.30;;;14.40;;
17449;SDS011;8842;51.244;7.102;2023-11-19T02:39:19;14.40;;;13.60;;
17449;SDS011;8842;51.244;7.102;2023-11-19T02:44:31;14.27;;;13.50;;
17449;SDS011;8842;51.244;7.102;2023-11-19T02:49:35;14.00;;;13.30;;
17449;SDS011;8842;51.244;7.102;2023-11-19T02:54:46;13.90;;;13.20;;
17449;SDS011;8842;51.244;7.102;2023-11-19T03:05:05;13.83;;;13.13;;
17449;SDS011;8842;51.244;7.102;2023-11-19T03:10:11;14.10;;;13.40;;
17449;SDS011;8842;51.244;7.102;2023-11-19T03:15:23;14.00;;;13.30;;
17449;SDS011;8842;51.244;7.102;2023-11-19T03:20:27;14.10;;;13.40;;
17449;SDS011;8842;51.244;7.102;2023-11-19T03:25:39;13.90;;;13.20;;
17449;SDS011;8842;51.244;7.102;2023-11-19T03:30:43;13.87;;;13.17;;
17449;SDS011;8842;51.244;7.102;2023-11-19T03:35:56;14.20;;;13.50;;
17449;SDS011;8842;51.244;7.102;2023-11-19T03:41:00;14.03;;;13.33;;
17449;SDS011;8842;51.244;7.102;2023-11-19T03:46:05;14.10;;;13.40;;
17449;SDS011;8842;51.244;7.102;2023-11-19T03:51:21;14.43;;;13.63;;
17449;SDS011;8842;51.244;7.102;2023-11-19T03:56:25;14.50;;;13.70;;
17449;SDS011;8842;51.244;7.102;2023-11-19T04:01:37;14.13;;;13.43;;
17449;SDS011;8842;51.244;7.102;2023-11-19T04:06:41;14.40;;;13.60;;
17449;SDS011;8842;51.244;7.102;2023-11-19T04:11:45;14.10;;;13.40;;
17449;SDS011;8842;51.244;7.102;2023-11-19T04:16:56;14.23;;;13.53;;
17449;SDS011;8842;51.244;7.102;2023-11-19T04:22:00;13.80;;;13.10;;
17449;SDS011;8842;51.244;7.102;2023-11-19T04:27:15;13.80;;;13.10;;
17449;SDS011;8842;51.244;7.102;2023-11-19T04:32:19;13.70;;;13.00;;
17449;SDS011;8842;51.244;7.102;2023-11-19T04:37:33;13.83;;;13.13;;
17449;SDS011;8842;51.244;7.102;2023-11-19T04:42:37;13.33;;;12.63;;
17449;SDS011;8842;51.244;7.102;2023-11-19T04:47:43;13.50;;;12.80;;
17449;SDS011;8842;51.244;7.102;2023-11-19T04:52:58;13.20;;;12.50;;
17449;SDS011;8842;51.244;7.102;2023-11-19T04:58:02;13.40;;;12.70;;
17449;SDS011;8842;51.244;7.102;2023-11-19T05:03:16;13.60;;;12.90;;
17449;SDS011;8842;51.244;7.102;2023-11-19T05:08:20;13.50;;;12.80;;
17449;SDS011;8842;51.244;7.102;2023-11-19T05:13:32;13.53;;;12.83;;
17449;SDS011;8842;51.244;7.102;2023-11-19T05:18:36;13.70;;;13.00;;
17449;SDS011;8842;51.244;7.102;2023-11-19T05:23:50;13.83;;;13.13;;
17449;SDS011;8842;51.244;7.102;2023-11-19T05:28:55;13.83;;;13.13;;
17449;SDS011;8842;51.244;7.102;2023-11-19T05:34:09;13.90;;;13.20;;
17449;SDS011;8842;51.244;7.102;2023-11-19T05:39:13;13.70;;;13.00;;
17449;SDS011;8842;51.244;7.102;2023-11-19T05:44:17;13.87;;;13.17;;
17449;SDS011;8842;51.244;7.102;2023-11-19T05:49:21;14.10;;;13.40;;
17449;SDS011;8842;51.244;7.102;2023-11-19T05:54:25;13.83;;;13.13;;
17449;SDS011;8842;51.244;7.102;2023-11-19T05:59:29;13.70;;;13.00;;
17449;SDS011;8842;51.244;7.102;2023-11-19T06:04:35;13.90;;;13.20;;
17449;SDS011;8842;51.244;7.102;2023-11-19T06:09:39;14.00;;;13.30;;
17449;SDS011;8842;51.244;7.102;2023-11-19T06:14:44;13.67;;;12.97;;
17449;SDS011;8842;51.244;7.102;2023-11-19T06:19:55;13.57;;;12.87;;
17449;SDS011;8842;51.244;7.102;2023-11-19T06:24:59;14.00;;;13.30;;
17449;SDS011;8842;51.244;7.102;2023-11-19T06:30:12;13.60;;;12.90;;
17449;SDS011;8842;51.244;7.102;2023-11-19T06:35:17;14.00;;;13.30;;
17449;SDS011;8842;51.244;7.102;2023-11-19T06:40:28;13.90;;;13.20;;
17449;SDS011;8842;51.244;7.102;2023-11-19T06:50:43;13.67;;;12.97;;
17449;SDS011;8842;51.244;7.102;2023-11-19T06:55:47;13.60;;;12.90;;
17449;SDS011;8842;51.244;7.102;2023-11-19T07:00:51;13.40;;;12.70;;
17449;SDS011;8842;51.244;7.102;2023-11-19T07:05:55;13.60;;;12.90;;
17449;SDS011;8842;51.244;7.102;2023-11-19T07:10:59;13.40;;;12.70;;
17449;SDS011;8842;51.244;7.102;2023-11-19T07:16:11;13.77;;;13.07;;
17449;SDS011;8842;51.244;7.102;2023-11-19T07:21:18;14.10;;;13.40;;
17449;SDS011;8842;51.244;7.102;2023-11-19T07:26:22;13.40;;;12.70;;
17449;SDS011;8842;51.244;7.102;2023-11-19T07:31:34;13.50;;;12.80;;
17449;SDS011;8842;51.244;7.102;2023-11-19T07:36:38;13.17;;;12.47;;
17449;SDS011;8842;51.244;7.102;2023-11-19T07:41:53;13.20;;;12.50;;
17449;SDS011;8842;51.244;7.102;2023-11-19T07:46:57;13.40;;;12.70;;
17449;SDS011;8842;51.244;7.102;2023-11-19T07:52:02;12.37;;;11.77;;
17449;SDS011;8842;51.244;7.102;2023-11-19T07:57:14;11.63;;;11.03;;
17449;SDS011;8842;51.244;7.102;2023-11-19T08:02:18;13.30;;;12.60;;
17449;SDS011;8842;51.244;7.102;2023-11-19T08:07:30;12.40;;;11.80;;
17449;SDS011;8842;51.244;7.102;2023-11-19T08:12:34;12.50;;;11.83;;
17449;SDS011;8842;51.244;7.102;2023-11-19T08:17:38;11.10;;;10.50;;
17449;SDS011;8842;51.244;7.102;2023-11-19T08:22:42;12.20;;;11.60;;
17449;SDS011;8842;51.244;7.102;2023-11-19T08:27:57;12.30;;;11.70;;
17449;SDS011;8842;51.244;7.102;2023-11-19T08:33:01;12.43;;;11.77;;
17449;SDS011;8842;51.244;7.102;2023-11-19T08:38:13;13.10;;;12.40;;
17449;SDS011;8842;51.244;7.102;2023-11-19T08:43:17;12.90;;;12.20;;
17449;SDS011;8842;51.244;7.102;2023-11-19T08:48:31;12.40;;;11.80;;
17449;SDS011;8842;51.244;7.102;2023-11-19T08:53:35;12.33;;;11.73;;
17449;SDS011;8842;51.244;7.102;2023-11-19T08:58:39;11.93;;;11.33;;
17449;SDS011;8842;51.244;7.102;2023-11-19T09:03:43;11.90;;;11.30;;
17449;SDS011;8842;51.244;7.102;2023-11-19T09:08:55;11.60;;;11.00;;
17449;SDS011;8842;51.244;7.102;2023-11-19T09:14:02;11.30;;;10.70;;
17449;SDS011;8842;51.244;7.102;2023-11-19T09:19:14;11.30;;;10.70;;
17449;SDS011;8842;51.244;7.102;2023-11-19T09:24:20;11.10;;;10.40;;
17449;SDS011;8842;51.244;7.102;2023-11-19T09:29:32;9.30;;;8.80;;
17449;SDS011;8842;51.244;7.102;2023-11-19T09:34:37;8.57;;;8.10;;
17449;SDS011;8842;51.244;7.102;2023-11-19T09:39:41;7.30;;;7.00;;
17449;SDS011;8842;51.244;7.102;2023-11-19T09:44:46;7.00;;;6.70;;
17449;SDS011;8842;51.244;7.102;2023-11-19T09:49:52;7.60;;;6.83;;
17449;SDS011;8842;51.244;7.102;2023-11-19T09:54:57;7.30;;;6.90;;
17449;SDS011;8842;51.244;7.102;2023-11-19T10:00:01;6.60;;;6.30;;
17449;SDS011;8842;51.244;7.102;2023-11-19T10:05:15;6.77;;;6.47;;
17449;SDS011;8842;51.244;7.102;2023-11-19T10:10:20;5.60;;;5.40;;
17449;SDS011;8842;51.244;7.102;2023-11-19T10:15:25;5.80;;;5.60;;
17449;SDS011;8842;51.244;7.102;2023-11-19T10:20:37;5.87;;;5.63;;
17449;SDS011;8842;51.244;7.102;2023-11-19T10:25:44;5.83;;;5.63;;
17449;SDS011;8842;51.244;7.102;2023-11-19T10:30:48;6.43;;;6.13;;
17449;SDS011;8842;51.244;7.102;2023-11-19T10:35:53;5.70;;;5.50;;
17449;SDS011;8842;51.244;7.102;2023-11-19T10:40:59;5.80;;;5.60;;
17449;SDS011;8842;51.244;7.102;2023-11-19T10:46:10;6.50;;;6.20;;
17449;SDS011;8842;51.244;7.102;2023-11-19T10:56:33;5.00;;;4.80;;
17449;SDS011;8842;51.244;7.102;2023-11-19T11:01:43;4.80;;;4.60;;
17449;SDS011;8842;51.244;7.102;2023-11-19T11:06:55;4.70;;;4.50;;
17449;SDS011;8842;51.244;7.102;2023-11-19T11:12:01;4.80;;;4.60;;
17449;SDS011;8842;51.244;7.102;2023-11-19T11:17:07;5.80;;;5.50;;
17449;SDS011;8842;51.244;7.102;2023-11-19T11:22:14;4.87;;;4.67;;
17449;SDS011;8842;51.244;7.102;2023-11-19T11:27:30;6.07;;;5.77;;
17449;SDS011;8842;51.244;7.102;2023-11-19T11:32:41;5.70;;;5.50;;
17449;SDS011;8842;51.244;7.102;2023-11-19T11:37:56;5.70;;;5.50;;
17449;SDS011;8842;51.244;7.102;2023-11-19T11:43:01;10.23;;;5.87;;
17449;SDS011;8842;51.244;7.102;2023-11-19T11:48:12;4.90;;;4.70;;
17449;SDS011;8842;51.244;7.102;2023-11-19T11:53:26;5.50;;;5.30;;
17449;SDS011;8842;51.244;7.102;2023-11-19T11:58:32;5.47;;;5.03;;
17449;SDS011;8842;51.244;7.102;2023-11-19T12:03:38;5.10;;;4.90;;
17449;SDS011;8842;51.244;7.102;2023-11-19T12:08:42;5.17;;;4.97;;
17449;SDS011;8842;51.244;7.102;2023-11-19T12:13:54;6.97;;;5.40;;
17449;SDS011;8842;51.244;7.102;2023-11-19T12:19:03;6.00;;;5.60;;
17449;SDS011;8842;51.244;7.102;2023-11-19T12:24:08;5.90;;;5.60;;
17449;SDS011;8842;51.244;7.102;2023-11-19T12:29:14;5.30;;;5.10;;
17449;SDS011;8842;51.244;7.102;2023-11-19T12:34:26;4.80;;;4.60;;
17449;SDS011;8842;51.244;7.102;2023-11-19T12:39:30;5.87;;;5.40;;
17449;SDS011;8842;51.244;7.102;2023-11-19T12:44:53;5.67;;;5.47;;
17449;SDS011;8842;51.244;7.102;2023-11-19T12:49:59;5.60;;;5.40;;
17449;SDS011;8842;51.244;7.102;2023-11-19T12:55:03;5.50;;;5.30;;
17449;SDS011;8842;51.244;7.102;2023-11-19T13:00:17;6.00;;;5.70;;
17449;SDS011;8842;51.244;7.102;2023-11-19T13:05:24;6.10;;;5.80;;
17449;SDS011;8842;51.244;7.102;2023-11-19T13:10:30;6.20;;;5.90;;
17449;SDS011;8842;51.244;7.102;2023-11-19T13:15:45;5.30;;;5.10;;
17449;SDS011;8842;51.244;7.102;2023-11-19T13:20:49;5.30;;;5.10;;
17449;SDS011;8842;51.244;7.102;2023-11-19T13:25:53;5.70;;;5.50;;
17449;SDS011;8842;51.244;7.102;2023-11-19T13:30:57;5.60;;;5.40;;
17449;SDS011;8842;51.244;7.102;2023-11-19T13:36:01;5.23;;;5.03;;
17449;SDS011;8842;51.244;7.102;2023-11-19T13:41:08;4.80;;;4.60;;
17449;SDS011;8842;51.244;7.102;2023-11-19T13:46:13;5.30;;;5.10;;
17449;SDS011;8842;51.244;7.102;2023-11-19T13:51:17;4.60;;;4.40;;
17449;SDS011;8842;51.244;7.102;2023-11-19T13:56:22;5.00;;;4.80;;
17449;SDS011;8842;51.244;7.102;2023-11-19T14:01:33;5.70;;;5.47;;
17449;SDS011;8842;51.244;7.102;2023-11-19T14:06:38;6.20;;;5.90;;
17449;SDS011;8842;51.244;7.102;2023-11-19T14:11:52;5.50;;;5.30;;
17449;SDS011;8842;51.244;7.102;2023-11-19T14:16:56;6.10;;;5.80;;
17449;SDS011;8842;51.244;7.102;2023-11-19T14:22:08;5.60;;;5.40;;
17449;SDS011;8842;51.244;7.102;2023-11-19T14:27:12;5.80;;;5.60;;
17449;SDS011;8842;51.244;7.102;2023-11-19T14:32:16;5.90;;;5.60;;
17449;SDS011;8842;51.244;7.102;2023-11-19T14:37:20;6.10;;;5.80;;
17449;SDS011;8842;51.244;7.102;2023-11-19T14:42:24;6.00;;;5.70;;
17449;SDS011;8842;51.244;7.102;2023-11-19T14:52:39;11.13;;;10.53;;
17449;SDS011;8842;51.244;7.102;2023-11-19T14:57:44;12.13;;;11.50;;
17449;SDS011;8842;51.244;7.102;2023-11-19T15:02:56;12.23;;;11.63;;
17449;SDS011;8842;51.244;7.102;2023-11-19T15:08:00;13.17;;;12.47;;
17449;SDS011;8842;51.244;7.102;2023-11-19T15:13:11;14.00;;;13.30;;
17449;SDS011;8842;51.244;7.102;2023-11-19T15:18:15;13.53;;;12.83;;
17449;SDS011;8842;51.244;7.102;2023-11-19T15:23:27;13.83;;;13.13;;
17449;SDS011;8842;51.244;7.102;2023-11-19T15:28:32;13.37;;;12.67;;
17449;SDS011;8842;51.244;7.102;2023-11-19T15:33:36;13.67;;;12.97;;
17449;SDS011;8842;51.244;7.102;2023-11-19T15:38:42;13.47;;;12.77;;
17449;SDS011;8842;51.244;7.102;2023-11-19T15:43:54;13.20;;;12.50;;
17449;SDS011;8842;51.244;7.102;2023-11-19T15:48:58;12.50;;;11.90;;
17449;SDS011;8842;51.244;7.102;2023-11-19T15:54:09;12.40;;;11.80;;
17449;SDS011;8842;51.244;7.102;2023-11-19T15:59:13;13.00;;;12.30;;
17449;SDS011;8842;51.244;7.102;2023-11-19T16:04:25;13.40;;;12.70;;
17449;SDS011;8842;51.244;7.102;2023-11-19T16:09:29;12.90;;;12.20;;
17449;SDS011;8842;51.244;7.102;2023-11-19T16:14:33;13.30;;;12.60;;
17449;SDS011;8842;51.244;7.102;2023-11-19T16:19:38;12.93;;;12.23;;
17449;SDS011;8842;51.244;7.102;2023-11-19T16:24:43;13.00;;;12.30;;
17449;SDS011;8842;51.244;7.102;2023-11-19T16:29:47;13.33;;;12.63;;
17449;SDS011;8842;51.244;7.102;2023-11-19T16:34:58;12.33;;;11.73;;
17449;SDS011;8842;51.244;7.102;2023-11-19T16:40:03;12.40;;;11.80;;
17449;SDS011;8842;51.244;7.102;2023-11-19T16:45:19;12.93;;;12.23;;
17449;SDS011;8842;51.244;7.102;2023-11-19T16:50:24;12.67;;;12.03;;
17449;SDS011;8842;51.244;7.102;2023-11-19T16:55:30;13.07;;;12.37;;
17449;SDS011;8842;51.244;7.102;2023-11-19T17:00:34;12.30;;;11.70;;
17449;SDS011;8842;51.244;7.102;2023-11-19T17:05:39;12.10;;;11.50;;
17449;SDS011;8842;51.244;7.102;2023-11-19T17:10:44;11.97;;;11.37;;
17449;SDS011;8842;51.244;7.102;2023-11-19T17:15:56;11.50;;;10.90;;
17449;SDS011;8842;51.244;7.102;2023-11-19T17:21:00;12.20;;;11.60;;
17449;SDS011;8842;51.244;7.102;2023-11-19T17:26:04;12.57;;;11.97;;
17449;SDS011;8842;51.244;7.102;2023-11-19T17:31:18;11.00;;;10.40;;
17449;SDS011;8842;51.244;7.102;2023-11-19T17:36:23;12.40;;;11.80;;
17449;SDS011;8842;51.244;7.102;2023-11-19T17:41:37;12.87;;;12.17;;
17449;SDS011;8842;51.244;7.102;2023-11-19T17:46:42;12.47;;;11.87;;
17449;SDS011;8842;51.244;7.102;2023-11-19T17:51:46;12.30;;;11.70;;
17449;SDS011;8842;51.244;7.102;2023-11-19T17:57:00;13.30;;;12.60;;
17449;SDS011;8842;51.244;7.102;2023-11-19T18:02:04;12.70;;;12.00;;
17449;SDS011;8842;51.244;7.102;2023-11-19T18:07:08;13.30;;;12.60;;
17449;SDS011;8842;51.244;7.102;2023-11-19T18:12:23;12.70;;;12.00;;
17449;SDS011;8842;51.244;7.102;2023-11-19T18:17:27;13.27;;;12.57;;
17449;SDS011;8842;51.244;7.102;2023-11-19T18:22:31;13.13;;;12.43;;
17449;SDS011;8842;51.244;7.102;2023-11-19T18:27:35;13.10;;;12.40;;
17449;SDS011;8842;51.244;7.102;2023-11-19T18:32:40;13.47;;;12.77;;
17449;SDS011;8842;51.244;7.102;2023-11-19T18:37:45;13.40;;;12.70;;
17449;SDS011;8842;51.244;7.102;2023-11-19T18:42:49;13.67;;;12.97;;
17449;SDS011;8842;51.244;7.102;2023-11-19T18:47:54;13.70;;;13.00;;
17449;SDS011;8842;51.244;7.102;2023-11-19T18:53:02;13.63;;;12.93;;
17449;SDS011;8842;51.244;7.102;2023-11-19T19:03:36;13.40;;;12.70;;
17449;SDS011;8842;51.244;7.102;2023-11-19T19:08:40;13.27;;;12.57;;
17449;SDS011;8842;51.244;7.102;2023-11-19T19:13:46;13.77;;;13.07;;
17449;SDS011;8842;51.244;7.102;2023-11-19T19:19:00;13.50;;;12.80;;
17449;SDS011;8842;51.244;7.102;2023-11-19T19:24:05;13.63;;;12.93;;
17449;SDS011;8842;51.244;7.102;2023-11-19T19:29:17;13.47;;;12.77;;
17449;SDS011;8842;51.244;7.102;2023-11-19T19:34:22;13.50;;;12.80;;
17449;SDS011;8842;51.244;7.102;2023-11-19T19:39:36;13.20;;;12.50;;
17449;SDS011;8842;51.244;7.102;2023-11-19T19:44:41;13.40;;;12.70;;
17449;SDS011;8842;51.244;7.102;2023-11-19T19:49:45;13.90;;;13.20;;
17449;SDS011;8842;51.244;7.102;2023-11-19T19:54:50;13.20;;;12.50;;
17449;SDS011;8842;51.244;7.102;2023-11-19T19:59:54;13.27;;;12.57;;
17449;SDS011;8842;51.244;7.102;2023-11-19T20:04:58;13.47;;;12.77;;
17449;SDS011;8842;51.244;7.102;2023-11-19T20:10:12;13.30;;;12.60;;
17449;SDS011;8842;51.244;7.102;2023-11-19T20:15:17;13.40;;;12.70;;
17449;SDS011;8842;51.244;7.102;2023-11-19T20:20:31;13.70;;;13.00;;
17449;SDS011;8842;51.244;7.102;2023-11-19T20:25:35;13.70;;;13.00;;
17449;SDS011;8842;51.244;7.102;2023-11-19T20:30:47;13.47;;;12.77;;
17449;SDS011;8842;51.244;7.102;2023-11-19T20:35:51;13.40;;;12.70;;
17449;SDS011;8842;51.244;7.102;2023-11-19T20:40:57;13.40;;;12.70;;
17449;SDS011;8842;51.244;7.102;2023-11-19T20:46:02;13.40;;;12.70;;
17449;SDS011;8842;51.244;7.102;2023-11-19T20:51:07;12.90;;;12.20;;
17449;SDS011;8842;51.244;7.102;2023-11-19T20:56:11;13.33;;;12.63;;
17449;SDS011;8842;51.244;7.102;2023-11-19T21:01:15;13.10;;;12.40;;
17449;SDS011;8842;51.244;7.102;2023-11-19T21:06:27;13.60;;;12.90;;
17449;SDS011;8842;51.244;7.102;2023-11-19T21:11:31;13.63;;;12.93;;
17449;SDS011;8842;51.244;7.102;2023-11-19T21:16:46;13.87;;;13.17;;
17449;SDS011;8842;51.244;7.102;2023-11-19T21:21:50;13.83;;;13.13;;
17449;SDS011;8842;51.244;7.102;2023-11-19T21:26:54;13.93;;;13.23;;
17449;SDS011;8842;51.244;7.102;2023-11-19T21:32:06;13.57;;;12.87;;
17449;SDS011;8842;51.244;7.102;2023-11-19T21:37:10;13.40;;;12.70;;
17449;SDS011;8842;51.244;7.102;2023-11-19T21:42:14;13.37;;;12.67;;
17449;SDS011;8842;51.244;7.102;2023-11-19T21:47:26;13.30;;;12.60;;
17449;SDS011;8842;51.244;7.102;2023-11-19T21:52:30;13.50;;;12.80;;
17449;SDS011;8842;51.244;7.102;2023-11-19T21:57:44;13.33;;;12.63;;
17449;SDS011;8842;51.244;7.102;2023-11-19T22:02:48;13.20;;;12.50;;
17449;SDS011;8842;51.244;7.102;2023-11-19T22:07:52;13.40;;;12.70;;
17449;SDS011;8842;51.244;7.102;2023-11-19T22:12:57;13.20;;;12.50;;
17449;SDS011;8842;51.244;7.102;2023-11-19T22:18:01;12.87;;;12.17;;
17449;SDS011;8842;51.244;7.102;2023-11-19T22:23:05;13.23;;;12.53;;
17449;SDS011;8842;51.244;7.102;2023-11-19T22:28:09;13.63;;;12.93;;
17449;SDS011;8842;51.244;7.102;2023-11-19T22:33:14;13.10;;;12.40;;
17449;SDS011;8842;51.244;7.102;2023-11-19T22:38:18;13.30;;;12.60;;
17449;SDS011;8842;51.244;7.102;2023-11-19T22:43:23;13.00;;;12.30;;
17449;SDS011;8842;51.244;7.102;2023-11-19T22:48:27;13.00;;;12.30;;
17449;SDS011;8842;51.244;7.102;2023-11-19T22:53:31;13.40;;;12.70;;
17449;SDS011;8842;51.244;7.102;2023-11-19T22:58:35;13.73;;;13.03;;
17449;SDS011;8842;51.244;7.102;2023-11-19T23:03:39;13.70;;;13.00;;
17449;SDS011;8842;51.244;7.102;2023-11-19T23:08:51;12.97;;;12.27;;
17449;SDS011;8842;51.244;7.102;2023-11-19T23:13:55;13.10;;;12.40;;
17449;SDS011;8842;51.244;7.102;2023-11-19T23:19:10;12.97;;;12.27;;
17449;SDS011;8842;51.244;7.102;2023-11-19T23:24:14;12.87;;;12.17;;
17449;SDS011;8842;51.244;7.102;2023-11-19T23:29:29;12.80;;;12.10;;
17449;SDS011;8842;51.244;7.102;2023-11-19T23:34:33;12.90;;;12.20;;
17449;SDS011;8842;51.244;7.102;2023-11-19T23:39:45;13.20;;;12.50;;
17449;SDS011;8842;51.244;7.102;2023-11-19T23:44:49;13.30;;;12.60;;
17449;SDS011;8842;51.244;7.102;2023-11-19T23:50:04;13.27;;;12.57;;
17449;SDS011;8842;51.244;7.102;2023-11-19T23:55:09;13.20;;;12.50;;
